sensor_id;sensor_type;location;lat;lon;timestamp;P1;durP1;ratioP1;P2;durP2;ratioP2
65358;SDS011;52491;45.900;6.346;2023-06-04T00:00:29;1.63;;;1.45;;
65358;SDS011;52491;45.900;6.346;2023-06-04T00:02:55;1.50;;;1.38;;
65358;SDS011;52491;45.900;6.346;2023-06-04T00:05:21;1.75;;;1.08;;
65358;SDS011;52491;45.900;6.346;2023-06-04T00:07:50;4.03;;;1.40;;
65358;SDS011;52491;45.900;6.346;2023-06-04T00:10:19;1.50;;;1.40;;
65358;SDS011;52491;45.900;6.346;2023-06-04T00:12:45;1.17;;;1.08;;
65358;SDS011;52491;45.900;6.346;2023-06-04T00:15:10;2.03;;;1.58;;
65358;SDS011;52491;45.900;6.346;2023-06-04T00:17:36;2.53;;;1.00;;
65358;SDS011;52491;45.900;6.346;2023-06-04T00:20:02;1.65;;;1.20;;
65358;SDS011;52491;45.900;6.346;2023-06-04T00:22:28;1.20;;;1.10;;
65358;SDS011;52491;45.900;6.346;2023-06-04T00:24:53;2.20;;;1.05;;
65358;SDS011;52491;45.900;6.346;2023-06-04T00:27:19;1.17;;;1.08;;
65358;SDS011;52491;45.900;6.346;2023-06-04T00:29:44;1.70;;;1.40;;
65358;SDS011;52491;45.900;6.346;2023-06-04T00:32:10;1.25;;;1.00;;
65358;SDS011;52491;45.900;6.346;2023-06-04T00:34:36;1.80;;;1.23;;
65358;SDS011;52491;45.900;6.346;2023-06-04T00:37:01;4.25;;;0.80;;
65358;SDS011;52491;45.900;6.346;2023-06-04T00:39:27;1.02;;;1.00;;
65358;SDS011;52491;45.900;6.346;2023-06-04T00:41:52;1.27;;;0.98;;
65358;SDS011;52491;45.900;6.346;2023-06-04T00:44:18;1.75;;;1.25;;
65358;SDS011;52491;45.900;6.346;2023-06-04T00:46:46;1.65;;;1.35;;
65358;SDS011;52491;45.900;6.346;2023-06-04T00:49:14;1.90;;;1.27;;
65358;SDS011;52491;45.900;6.346;2023-06-04T00:51:40;2.50;;;1.48;;
65358;SDS011;52491;45.900;6.346;2023-06-04T00:54:06;1.48;;;1.08;;
65358;SDS011;52491;45.900;6.346;2023-06-04T00:56:37;2.03;;;1.05;;
65358;SDS011;52491;45.900;6.346;2023-06-04T00:59:07;1.35;;;1.10;;
65358;SDS011;52491;45.900;6.346;2023-06-04T01:01:37;1.25;;;1.05;;
65358;SDS011;52491;45.900;6.346;2023-06-04T01:04:20;2.47;;;1.15;;
65358;SDS011;52491;45.900;6.346;2023-06-04T01:07:09;0.93;;;0.90;;
65358;SDS011;52491;45.900;6.346;2023-06-04T01:09:38;1.60;;;1.10;;
65358;SDS011;52491;45.900;6.346;2023-06-04T01:12:06;1.58;;;1.38;;
65358;SDS011;52491;45.900;6.346;2023-06-04T01:14:32;1.25;;;1.02;;
65358;SDS011;52491;45.900;6.346;2023-06-04T01:17:02;1.48;;;1.38;;
65358;SDS011;52491;45.900;6.346;2023-06-04T01:23:08;4.55;;;1.13;;
65358;SDS011;52491;45.900;6.346;2023-06-04T01:25:14;1.30;;;1.13;;
65358;SDS011;52491;45.900;6.346;2023-06-04T01:30:16;1.67;;;1.30;;
65358;SDS011;52491;45.900;6.346;2023-06-04T01:32:44;4.00;;;1.80;;
65358;SDS011;52491;45.900;6.346;2023-06-04T01:35:11;4.60;;;1.35;;
65358;SDS011;52491;45.900;6.346;2023-06-04T01:37:37;4.03;;;1.55;;
65358;SDS011;52491;45.900;6.346;2023-06-04T01:40:04;3.90;;;1.27;;
65358;SDS011;52491;45.900;6.346;2023-06-04T01:42:30;4.68;;;1.42;;
65358;SDS011;52491;45.900;6.346;2023-06-04T01:44:56;1.88;;;1.15;;
65358;SDS011;52491;45.900;6.346;2023-06-04T01:47:21;3.55;;;1.20;;
65358;SDS011;52491;45.900;6.346;2023-06-04T01:49:47;2.08;;;1.50;;
65358;SDS011;52491;45.900;6.346;2023-06-04T01:52:12;4.00;;;1.25;;
65358;SDS011;52491;45.900;6.346;2023-06-04T01:54:38;1.48;;;1.38;;
65358;SDS011;52491;45.900;6.346;2023-06-04T01:57:04;2.33;;;1.35;;
65358;SDS011;52491;45.900;6.346;2023-06-04T01:59:30;3.65;;;1.23;;
65358;SDS011;52491;45.900;6.346;2023-06-04T02:01:58;2.42;;;1.02;;
65358;SDS011;52491;45.900;6.346;2023-06-04T02:04:24;12.50;;;1.75;;
65358;SDS011;52491;45.900;6.346;2023-06-04T02:06:50;7.78;;;2.33;;
65358;SDS011;52491;45.900;6.346;2023-06-04T02:09:15;7.22;;;1.73;;
65358;SDS011;52491;45.900;6.346;2023-06-04T02:11:41;5.18;;;1.67;;
65358;SDS011;52491;45.900;6.346;2023-06-04T02:14:07;3.45;;;1.85;;
65358;SDS011;52491;45.900;6.346;2023-06-04T02:16:32;3.05;;;1.48;;
65358;SDS011;52491;45.900;6.346;2023-06-04T02:18:58;2.92;;;1.90;;
65358;SDS011;52491;45.900;6.346;2023-06-04T02:21:24;3.17;;;1.40;;
65358;SDS011;52491;45.900;6.346;2023-06-04T02:23:50;3.85;;;1.20;;
65358;SDS011;52491;45.900;6.346;2023-06-04T02:26:15;5.38;;;1.50;;
65358;SDS011;52491;45.900;6.346;2023-06-04T02:28:41;4.93;;;1.67;;
65358;SDS011;52491;45.900;6.346;2023-06-04T02:31:06;3.25;;;1.25;;
65358;SDS011;52491;45.900;6.346;2023-06-04T02:33:32;5.72;;;1.40;;
65358;SDS011;52491;45.900;6.346;2023-06-04T02:35:57;2.10;;;1.38;;
65358;SDS011;52491;45.900;6.346;2023-06-04T02:38:23;3.83;;;1.20;;
65358;SDS011;52491;45.900;6.346;2023-06-04T02:40:49;1.55;;;0.93;;
65358;SDS011;52491;45.900;6.346;2023-06-04T02:43:14;1.10;;;1.00;;
65358;SDS011;52491;45.900;6.346;2023-06-04T02:45:40;2.30;;;0.90;;
65358;SDS011;52491;45.900;6.346;2023-06-04T02:48:06;8.77;;;1.80;;
65358;SDS011;52491;45.900;6.346;2023-06-04T02:50:31;3.35;;;1.33;;
65358;SDS011;52491;45.900;6.346;2023-06-04T02:52:57;3.65;;;1.95;;
65358;SDS011;52491;45.900;6.346;2023-06-04T02:55:23;4.10;;;1.20;;
65358;SDS011;52491;45.900;6.346;2023-06-04T02:57:48;1.00;;;0.90;;
65358;SDS011;52491;45.900;6.346;2023-06-04T03:00:14;1.80;;;1.20;;
65358;SDS011;52491;45.900;6.346;2023-06-04T03:02:41;1.27;;;1.00;;
65358;SDS011;52491;45.900;6.346;2023-06-04T03:05:11;2.38;;;1.23;;
65358;SDS011;52491;45.900;6.346;2023-06-04T03:07:38;1.67;;;1.10;;
65358;SDS011;52491;45.900;6.346;2023-06-04T03:10:07;2.72;;;1.25;;
65358;SDS011;52491;45.900;6.346;2023-06-04T03:12:33;1.67;;;1.08;;
65358;SDS011;52491;45.900;6.346;2023-06-04T03:14:58;1.60;;;1.20;;
65358;SDS011;52491;45.900;6.346;2023-06-04T03:17:25;2.13;;;1.20;;
65358;SDS011;52491;45.900;6.346;2023-06-04T03:19:51;3.47;;;2.08;;
65358;SDS011;52491;45.900;6.346;2023-06-04T03:22:17;2.58;;;1.15;;
65358;SDS011;52491;45.900;6.346;2023-06-04T03:24:42;1.70;;;1.33;;
65358;SDS011;52491;45.900;6.346;2023-06-04T03:27:09;1.17;;;1.08;;
65358;SDS011;52491;45.900;6.346;2023-06-04T03:29:35;2.58;;;1.52;;
65358;SDS011;52491;45.900;6.346;2023-06-04T03:32:02;1.38;;;0.98;;
65358;SDS011;52491;45.900;6.346;2023-06-04T03:34:28;5.22;;;1.52;;
65358;SDS011;52491;45.900;6.346;2023-06-04T03:36:56;1.25;;;1.15;;
65358;SDS011;52491;45.900;6.346;2023-06-04T03:39:22;1.30;;;1.02;;
65358;SDS011;52491;45.900;6.346;2023-06-04T03:41:49;1.33;;;1.20;;
65358;SDS011;52491;45.900;6.346;2023-06-04T03:44:15;0.88;;;0.88;;
65358;SDS011;52491;45.900;6.346;2023-06-04T03:46:42;1.27;;;1.00;;
65358;SDS011;52491;45.900;6.346;2023-06-04T03:49:09;2.50;;;1.08;;
65358;SDS011;52491;45.900;6.346;2023-06-04T03:51:36;1.50;;;1.10;;
65358;SDS011;52491;45.900;6.346;2023-06-04T03:54:02;2.75;;;1.15;;
65358;SDS011;52491;45.900;6.346;2023-06-04T03:56:28;2.58;;;1.10;;
65358;SDS011;52491;45.900;6.346;2023-06-04T03:58:53;1.52;;;0.93;;
65358;SDS011;52491;45.900;6.346;2023-06-04T04:01:19;0.68;;;0.68;;
65358;SDS011;52491;45.900;6.346;2023-06-04T04:03:45;1.48;;;1.00;;
65358;SDS011;52491;45.900;6.346;2023-06-04T04:06:14;1.15;;;1.05;;
65358;SDS011;52491;45.900;6.346;2023-06-04T04:08:40;1.20;;;1.10;;
65358;SDS011;52491;45.900;6.346;2023-06-04T04:11:10;1.38;;;0.90;;
65358;SDS011;52491;45.900;6.346;2023-06-04T04:13:36;1.92;;;1.20;;
65358;SDS011;52491;45.900;6.346;2023-06-04T04:16:02;1.35;;;1.00;;
65358;SDS011;52491;45.900;6.346;2023-06-04T04:18:31;1.02;;;0.80;;
65358;SDS011;52491;45.900;6.346;2023-06-04T04:20:57;1.45;;;1.00;;
65358;SDS011;52491;45.900;6.346;2023-06-04T04:23:23;1.20;;;1.00;;
65358;SDS011;52491;45.900;6.346;2023-06-04T04:25:48;1.33;;;1.08;;
65358;SDS011;52491;45.900;6.346;2023-06-04T04:28:14;1.20;;;0.95;;
65358;SDS011;52491;45.900;6.346;2023-06-04T04:30:42;1.10;;;0.98;;
65358;SDS011;52491;45.900;6.346;2023-06-04T04:33:09;0.70;;;0.70;;
65358;SDS011;52491;45.900;6.346;2023-06-04T04:35:35;1.17;;;0.80;;
65358;SDS011;52491;45.900;6.346;2023-06-04T04:38:01;1.08;;;0.98;;
65358;SDS011;52491;45.900;6.346;2023-06-04T04:40:29;1.35;;;0.75;;
65358;SDS011;52491;45.900;6.346;2023-06-04T04:42:55;1.42;;;1.00;;
65358;SDS011;52491;45.900;6.346;2023-06-04T04:45:21;2.45;;;1.00;;
65358;SDS011;52491;45.900;6.346;2023-06-04T04:47:46;2.47;;;0.90;;
65358;SDS011;52491;45.900;6.346;2023-06-04T04:50:12;1.45;;;1.13;;
65358;SDS011;52491;45.900;6.346;2023-06-04T04:52:38;2.90;;;1.20;;
65358;SDS011;52491;45.900;6.346;2023-06-04T04:55:04;1.08;;;0.70;;
65358;SDS011;52491;45.900;6.346;2023-06-04T04:57:30;0.77;;;0.73;;
65358;SDS011;52491;45.900;6.346;2023-06-04T04:59:56;1.35;;;0.88;;
65358;SDS011;52491;45.900;6.346;2023-06-04T05:02:21;3.03;;;1.20;;
65358;SDS011;52491;45.900;6.346;2023-06-04T05:04:47;1.08;;;0.80;;
65358;SDS011;52491;45.900;6.346;2023-06-04T05:07:12;1.98;;;1.23;;
65358;SDS011;52491;45.900;6.346;2023-06-04T05:09:40;1.48;;;1.15;;
65358;SDS011;52491;45.900;6.346;2023-06-04T05:12:06;1.45;;;0.75;;
65358;SDS011;52491;45.900;6.346;2023-06-04T05:14:32;4.07;;;0.75;;
65358;SDS011;52491;45.900;6.346;2023-06-04T05:17:00;2.38;;;0.80;;
65358;SDS011;52491;45.900;6.346;2023-06-04T05:19:28;3.83;;;0.80;;
65358;SDS011;52491;45.900;6.346;2023-06-04T05:21:54;0.63;;;0.63;;
65358;SDS011;52491;45.900;6.346;2023-06-04T05:24:21;1.63;;;0.88;;
65358;SDS011;52491;45.900;6.346;2023-06-04T05:26:46;1.40;;;0.70;;
65358;SDS011;52491;45.900;6.346;2023-06-04T05:29:13;1.05;;;0.90;;
65358;SDS011;52491;45.900;6.346;2023-06-04T05:31:39;0.98;;;0.77;;
65358;SDS011;52491;45.900;6.346;2023-06-04T05:34:04;1.45;;;0.98;;
65358;SDS011;52491;45.900;6.346;2023-06-04T05:36:30;2.63;;;1.00;;
65358;SDS011;52491;45.900;6.346;2023-06-04T05:38:56;1.55;;;0.93;;
65358;SDS011;52491;45.900;6.346;2023-06-04T05:41:23;0.98;;;0.88;;
65358;SDS011;52491;45.900;6.346;2023-06-04T05:43:49;1.08;;;0.98;;
65358;SDS011;52491;45.900;6.346;2023-06-04T05:46:15;3.60;;;1.10;;
65358;SDS011;52491;45.900;6.346;2023-06-04T05:48:40;1.10;;;1.00;;
65358;SDS011;52491;45.900;6.346;2023-06-04T05:51:06;2.55;;;1.15;;
65358;SDS011;52491;45.900;6.346;2023-06-04T05:53:32;5.35;;;1.00;;
65358;SDS011;52491;45.900;6.346;2023-06-04T05:55:59;1.63;;;0.80;;
65358;SDS011;52491;45.900;6.346;2023-06-04T05:58:25;1.77;;;0.93;;
65358;SDS011;52491;45.900;6.346;2023-06-04T06:00:51;3.80;;;1.00;;
65358;SDS011;52491;45.900;6.346;2023-06-04T06:03:16;3.58;;;1.13;;
65358;SDS011;52491;45.900;6.346;2023-06-04T06:05:42;4.05;;;0.90;;
65358;SDS011;52491;45.900;6.346;2023-06-04T06:08:08;3.25;;;0.85;;
65358;SDS011;52491;45.900;6.346;2023-06-04T06:10:34;1.23;;;0.82;;
65358;SDS011;52491;45.900;6.346;2023-06-04T06:13:00;1.77;;;0.95;;
65358;SDS011;52491;45.900;6.346;2023-06-04T06:15:26;2.70;;;0.77;;
65358;SDS011;52491;45.900;6.346;2023-06-04T06:17:52;1.85;;;1.08;;
65358;SDS011;52491;45.900;6.346;2023-06-04T06:20:18;1.70;;;0.70;;
65358;SDS011;52491;45.900;6.346;2023-06-04T06:22:44;0.85;;;0.85;;
65358;SDS011;52491;45.900;6.346;2023-06-04T06:25:10;1.10;;;1.02;;
65358;SDS011;52491;45.900;6.346;2023-06-04T06:27:38;5.43;;;0.95;;
65358;SDS011;52491;45.900;6.346;2023-06-04T06:30:05;1.85;;;0.90;;
65358;SDS011;52491;45.900;6.346;2023-06-04T06:32:31;2.45;;;1.58;;
65358;SDS011;52491;45.900;6.346;2023-06-04T06:34:57;1.85;;;1.42;;
65358;SDS011;52491;45.900;6.346;2023-06-04T06:37:23;3.63;;;1.45;;
65358;SDS011;52491;45.900;6.346;2023-06-04T06:39:48;1.77;;;1.48;;
65358;SDS011;52491;45.900;6.346;2023-06-04T06:42:14;1.70;;;1.60;;
65358;SDS011;52491;45.900;6.346;2023-06-04T06:44:42;3.13;;;1.40;;
65358;SDS011;52491;45.900;6.346;2023-06-04T06:47:07;2.08;;;1.27;;
65358;SDS011;52491;45.900;6.346;2023-06-04T06:49:33;2.65;;;1.50;;
65358;SDS011;52491;45.900;6.346;2023-06-04T06:51:58;3.22;;;1.60;;
65358;SDS011;52491;45.900;6.346;2023-06-04T06:54:24;7.22;;;1.48;;
65358;SDS011;52491;45.900;6.346;2023-06-04T06:56:50;6.00;;;1.85;;
65358;SDS011;52491;45.900;6.346;2023-06-04T06:59:16;2.90;;;1.35;;
65358;SDS011;52491;45.900;6.346;2023-06-04T07:01:41;2.22;;;1.88;;
65358;SDS011;52491;45.900;6.346;2023-06-04T07:04:07;2.75;;;1.38;;
65358;SDS011;52491;45.900;6.346;2023-06-04T07:06:33;3.90;;;1.80;;
65358;SDS011;52491;45.900;6.346;2023-06-04T07:09:01;2.00;;;1.60;;
65358;SDS011;52491;45.900;6.346;2023-06-04T07:11:26;2.92;;;1.65;;
65358;SDS011;52491;45.900;6.346;2023-06-04T07:13:52;1.73;;;1.63;;
65358;SDS011;52491;45.900;6.346;2023-06-04T07:16:17;2.03;;;1.50;;
65358;SDS011;52491;45.900;6.346;2023-06-04T07:18:47;6.65;;;1.67;;
65358;SDS011;52491;45.900;6.346;2023-06-04T07:21:14;2.95;;;1.98;;
65358;SDS011;52491;45.900;6.346;2023-06-04T07:23:40;2.00;;;1.90;;
65358;SDS011;52491;45.900;6.346;2023-06-04T07:26:05;4.95;;;1.98;;
65358;SDS011;52491;45.900;6.346;2023-06-04T07:28:31;2.58;;;2.30;;
65358;SDS011;52491;45.900;6.346;2023-06-04T07:30:57;2.28;;;1.73;;
65358;SDS011;52491;45.900;6.346;2023-06-04T07:33:23;1.38;;;1.27;;
65358;SDS011;52491;45.900;6.346;2023-06-04T07:35:50;6.82;;;1.55;;
65358;SDS011;52491;45.900;6.346;2023-06-04T07:38:15;3.50;;;1.45;;
65358;SDS011;52491;45.900;6.346;2023-06-04T07:40:42;1.77;;;1.67;;
65358;SDS011;52491;45.900;6.346;2023-06-04T07:43:08;2.85;;;1.48;;
65358;SDS011;52491;45.900;6.346;2023-06-04T07:45:33;2.92;;;1.70;;
65358;SDS011;52491;45.900;6.346;2023-06-04T07:47:59;3.05;;;1.63;;
65358;SDS011;52491;45.900;6.346;2023-06-04T07:50:24;8.85;;;1.65;;
65358;SDS011;52491;45.900;6.346;2023-06-04T07:52:50;7.93;;;1.35;;
65358;SDS011;52491;45.900;6.346;2023-06-04T07:55:16;2.90;;;1.73;;
65358;SDS011;52491;45.900;6.346;2023-06-04T07:57:42;5.80;;;1.85;;
65358;SDS011;52491;45.900;6.346;2023-06-04T08:00:07;7.47;;;3.08;;
65358;SDS011;52491;45.900;6.346;2023-06-04T08:02:34;5.57;;;2.00;;
65358;SDS011;52491;45.900;6.346;2023-06-04T08:05:00;2.80;;;1.40;;
65358;SDS011;52491;45.900;6.346;2023-06-04T08:07:27;2.70;;;1.70;;
65358;SDS011;52491;45.900;6.346;2023-06-04T08:09:53;1.80;;;1.70;;
65358;SDS011;52491;45.900;6.346;2023-06-04T08:12:20;5.43;;;1.80;;
65358;SDS011;52491;45.900;6.346;2023-06-04T08:14:46;3.13;;;1.80;;
65358;SDS011;52491;45.900;6.346;2023-06-04T08:17:11;1.63;;;1.48;;
65358;SDS011;52491;45.900;6.346;2023-06-04T08:19:37;1.98;;;1.83;;
65358;SDS011;52491;45.900;6.346;2023-06-04T08:22:02;1.90;;;1.80;;
65358;SDS011;52491;45.900;6.346;2023-06-04T08:24:29;2.72;;;1.55;;
65358;SDS011;52491;45.900;6.346;2023-06-04T08:26:55;3.22;;;2.40;;
65358;SDS011;52491;45.900;6.346;2023-06-04T08:29:20;2.75;;;2.05;;
65358;SDS011;52491;45.900;6.346;2023-06-04T08:31:46;3.63;;;1.92;;
65358;SDS011;52491;45.900;6.346;2023-06-04T08:34:12;2.70;;;1.88;;
65358;SDS011;52491;45.900;6.346;2023-06-04T08:36:37;2.42;;;2.22;;
65358;SDS011;52491;45.900;6.346;2023-06-04T08:39:03;2.65;;;1.75;;
65358;SDS011;52491;45.900;6.346;2023-06-04T08:41:29;4.22;;;1.60;;
65358;SDS011;52491;45.900;6.346;2023-06-04T08:43:59;5.13;;;1.65;;
65358;SDS011;52491;45.900;6.346;2023-06-04T08:46:27;1.63;;;1.52;;
65358;SDS011;52491;45.900;6.346;2023-06-04T08:48:54;2.10;;;1.38;;
65358;SDS011;52491;45.900;6.346;2023-06-04T08:51:26;4.80;;;1.92;;
65358;SDS011;52491;45.900;6.346;2023-06-04T08:53:52;4.25;;;1.90;;
65358;SDS011;52491;45.900;6.346;2023-06-04T08:56:19;3.33;;;1.52;;
65358;SDS011;52491;45.900;6.346;2023-06-04T08:58:47;2.65;;;1.63;;
65358;SDS011;52491;45.900;6.346;2023-06-04T09:01:13;2.28;;;1.63;;
65358;SDS011;52491;45.900;6.346;2023-06-04T09:03:39;5.93;;;2.25;;
65358;SDS011;52491;45.900;6.346;2023-06-04T09:06:06;1.98;;;1.77;;
65358;SDS011;52491;45.900;6.346;2023-06-04T09:08:34;2.58;;;1.90;;
65358;SDS011;52491;45.900;6.346;2023-06-04T09:11:06;6.50;;;2.15;;
65358;SDS011;52491;45.900;6.346;2023-06-04T09:13:35;6.65;;;2.05;;
65358;SDS011;52491;45.900;6.346;2023-06-04T09:16:05;2.55;;;1.45;;
65358;SDS011;52491;45.900;6.346;2023-06-04T09:18:31;4.07;;;1.75;;
65358;SDS011;52491;45.900;6.346;2023-06-04T09:21:01;1.73;;;1.55;;
65358;SDS011;52491;45.900;6.346;2023-06-04T09:26:13;1.70;;;1.60;;
65358;SDS011;52491;45.900;6.346;2023-06-04T09:28:40;1.40;;;1.30;;
65358;SDS011;52491;45.900;6.346;2023-06-04T09:31:10;1.73;;;1.58;;
65358;SDS011;52491;45.900;6.346;2023-06-04T09:33:42;3.60;;;1.50;;
65358;SDS011;52491;45.900;6.346;2023-06-04T09:36:12;5.90;;;2.58;;
65358;SDS011;52491;45.900;6.346;2023-06-04T09:38:38;10.50;;;2.42;;
65358;SDS011;52491;45.900;6.346;2023-06-04T09:41:04;58.50;;;6.03;;
65358;SDS011;52491;45.900;6.346;2023-06-04T09:43:36;19.90;;;2.55;;
65358;SDS011;52491;45.900;6.346;2023-06-04T09:46:19;16.70;;;2.67;;
65358;SDS011;52491;45.900;6.346;2023-06-04T09:48:45;6.75;;;2.08;;
65358;SDS011;52491;45.900;6.346;2023-06-04T09:51:11;9.23;;;1.55;;
65358;SDS011;52491;45.900;6.346;2023-06-04T09:53:38;2.00;;;1.50;;
65358;SDS011;52491;45.900;6.346;2023-06-04T09:56:04;1.45;;;1.35;;
65358;SDS011;52491;45.900;6.346;2023-06-04T09:58:37;3.38;;;2.10;;
65358;SDS011;52491;45.900;6.346;2023-06-04T10:01:04;5.47;;;1.83;;
65358;SDS011;52491;45.900;6.346;2023-06-04T10:03:34;2.28;;;1.50;;
65358;SDS011;52491;45.900;6.346;2023-06-04T10:06:04;2.70;;;2.05;;
65358;SDS011;52491;45.900;6.346;2023-06-04T10:08:31;2.60;;;1.88;;
65358;SDS011;52491;45.900;6.346;2023-06-04T10:11:01;4.38;;;1.70;;
65358;SDS011;52491;45.900;6.346;2023-06-04T10:16:21;3.00;;;1.83;;
65358;SDS011;52491;45.900;6.346;2023-06-04T10:18:48;3.53;;;1.70;;
65358;SDS011;52491;45.900;6.346;2023-06-04T10:21:15;2.50;;;1.40;;
65358;SDS011;52491;45.900;6.346;2023-06-04T10:23:43;1.70;;;1.50;;
65358;SDS011;52491;45.900;6.346;2023-06-04T10:26:13;3.67;;;1.52;;
65358;SDS011;52491;45.900;6.346;2023-06-04T10:28:40;2.15;;;1.45;;
65358;SDS011;52491;45.900;6.346;2023-06-04T10:31:08;1.92;;;1.70;;
65358;SDS011;52491;45.900;6.346;2023-06-04T10:33:34;2.17;;;1.67;;
65358;SDS011;52491;45.900;6.346;2023-06-04T10:36:10;2.60;;;1.63;;
65358;SDS011;52491;45.900;6.346;2023-06-04T10:38:53;4.90;;;2.20;;
65358;SDS011;52491;45.900;6.346;2023-06-04T10:41:21;2.17;;;1.48;;
65358;SDS011;52491;45.900;6.346;2023-06-04T10:43:51;1.98;;;1.65;;
65358;SDS011;52491;45.900;6.346;2023-06-04T10:46:25;2.40;;;1.63;;
65358;SDS011;52491;45.900;6.346;2023-06-04T10:48:51;1.52;;;1.35;;
65358;SDS011;52491;45.900;6.346;2023-06-04T10:53:57;3.47;;;1.98;;
65358;SDS011;52491;45.900;6.346;2023-06-04T10:59:00;3.20;;;1.70;;
65358;SDS011;52491;45.900;6.346;2023-06-04T11:01:37;2.55;;;1.38;;
65358;SDS011;52491;45.900;6.346;2023-06-04T11:04:03;2.00;;;1.58;;
65358;SDS011;52491;45.900;6.346;2023-06-04T11:06:28;1.90;;;1.67;;
65358;SDS011;52491;45.900;6.346;2023-06-04T11:09:04;4.25;;;1.70;;
65358;SDS011;52491;45.900;6.346;2023-06-04T11:11:30;2.55;;;1.92;;
65358;SDS011;52491;45.900;6.346;2023-06-04T11:14:06;4.38;;;1.40;;
65358;SDS011;52491;45.900;6.346;2023-06-04T11:16:38;8.25;;;1.83;;
65358;SDS011;52491;45.900;6.346;2023-06-04T11:19:04;4.45;;;1.55;;
65358;SDS011;52491;45.900;6.346;2023-06-04T11:21:30;6.90;;;1.48;;
65358;SDS011;52491;45.900;6.346;2023-06-04T11:23:57;3.90;;;1.60;;
65358;SDS011;52491;45.900;6.346;2023-06-04T11:26:35;1.70;;;1.60;;
65358;SDS011;52491;45.900;6.346;2023-06-04T11:29:06;2.88;;;2.30;;
65358;SDS011;52491;45.900;6.346;2023-06-04T11:31:43;2.03;;;1.55;;
65358;SDS011;52491;45.900;6.346;2023-06-04T11:34:10;8.02;;;1.45;;
65358;SDS011;52491;45.900;6.346;2023-06-04T11:36:38;3.50;;;1.33;;
65358;SDS011;52491;45.900;6.346;2023-06-04T11:39:04;2.03;;;1.70;;
65358;SDS011;52491;45.900;6.346;2023-06-04T11:41:31;2.83;;;1.80;;
65358;SDS011;52491;45.900;6.346;2023-06-04T11:44:01;2.10;;;1.90;;
65358;SDS011;52491;45.900;6.346;2023-06-04T11:46:33;1.83;;;1.73;;
65358;SDS011;52491;45.900;6.346;2023-06-04T11:49:00;1.40;;;1.30;;
65358;SDS011;52491;45.900;6.346;2023-06-04T11:51:27;4.03;;;1.67;;
65358;SDS011;52491;45.900;6.346;2023-06-04T11:53:53;3.13;;;1.85;;
65358;SDS011;52491;45.900;6.346;2023-06-04T11:56:20;3.05;;;1.83;;
65358;SDS011;52491;45.900;6.346;2023-06-04T11:58:46;2.83;;;1.67;;
65358;SDS011;52491;45.900;6.346;2023-06-04T12:01:12;3.10;;;2.05;;
65358;SDS011;52491;45.900;6.346;2023-06-04T12:03:42;1.58;;;1.33;;
65358;SDS011;52491;45.900;6.346;2023-06-04T12:06:14;2.55;;;2.00;;
65358;SDS011;52491;45.900;6.346;2023-06-04T12:08:48;3.10;;;1.80;;
65358;SDS011;52491;45.900;6.346;2023-06-04T12:13:57;4.97;;;2.72;;
65358;SDS011;52491;45.900;6.346;2023-06-04T12:16:28;2.13;;;1.93;;
65358;SDS011;52491;45.900;6.346;2023-06-04T12:19:06;3.53;;;2.53;;
65358;SDS011;52491;45.900;6.346;2023-06-04T12:21:38;4.40;;;2.17;;
65358;SDS011;52491;45.900;6.346;2023-06-04T12:24:11;1.95;;;1.75;;
65358;SDS011;52491;45.900;6.346;2023-06-04T12:26:38;2.63;;;1.92;;
65358;SDS011;52491;45.900;6.346;2023-06-04T12:29:11;2.30;;;1.85;;
65358;SDS011;52491;45.900;6.346;2023-06-04T12:31:39;4.03;;;1.90;;
65358;SDS011;52491;45.900;6.346;2023-06-04T12:34:05;3.45;;;2.15;;
65358;SDS011;52491;45.900;6.346;2023-06-04T12:36:31;2.15;;;1.70;;
65358;SDS011;52491;45.900;6.346;2023-06-04T12:38:59;2.25;;;1.90;;
65358;SDS011;52491;45.900;6.346;2023-06-04T12:41:27;3.17;;;1.95;;
65358;SDS011;52491;45.900;6.346;2023-06-04T12:43:53;1.60;;;1.50;;
65358;SDS011;52491;45.900;6.346;2023-06-04T12:46:20;2.50;;;1.85;;
65358;SDS011;52491;45.900;6.346;2023-06-04T12:48:46;4.65;;;1.88;;
65358;SDS011;52491;45.900;6.346;2023-06-04T12:51:12;2.05;;;1.80;;
65358;SDS011;52491;45.900;6.346;2023-06-04T12:53:38;2.17;;;1.80;;
65358;SDS011;52491;45.900;6.346;2023-06-04T12:56:05;3.25;;;2.05;;
65358;SDS011;52491;45.900;6.346;2023-06-04T12:58:30;2.60;;;1.67;;
65358;SDS011;52491;45.900;6.346;2023-06-04T13:00:57;5.45;;;2.08;;
65358;SDS011;52491;45.900;6.346;2023-06-04T13:03:23;4.30;;;1.77;;
65358;SDS011;52491;45.900;6.346;2023-06-04T13:05:48;2.42;;;1.70;;
65358;SDS011;52491;45.900;6.346;2023-06-04T13:08:16;3.40;;;2.00;;
65358;SDS011;52491;45.900;6.346;2023-06-04T13:10:41;2.33;;;1.73;;
65358;SDS011;52491;45.900;6.346;2023-06-04T13:13:07;2.85;;;1.60;;
65358;SDS011;52491;45.900;6.346;2023-06-04T13:15:33;3.65;;;2.10;;
65358;SDS011;52491;45.900;6.346;2023-06-04T13:18:01;3.88;;;1.65;;
65358;SDS011;52491;45.900;6.346;2023-06-04T13:20:28;2.70;;;2.03;;
65358;SDS011;52491;45.900;6.346;2023-06-04T13:22:53;4.60;;;2.45;;
65358;SDS011;52491;45.900;6.346;2023-06-04T13:25:19;2.47;;;2.03;;
65358;SDS011;52491;45.900;6.346;2023-06-04T13:27:45;3.90;;;2.00;;
65358;SDS011;52491;45.900;6.346;2023-06-04T13:30:10;2.85;;;1.80;;
65358;SDS011;52491;45.900;6.346;2023-06-04T13:32:36;3.50;;;2.30;;
65358;SDS011;52491;45.900;6.346;2023-06-04T13:35:02;2.95;;;2.13;;
65358;SDS011;52491;45.900;6.346;2023-06-04T13:37:28;2.05;;;1.60;;
65358;SDS011;52491;45.900;6.346;2023-06-04T13:39:57;2.00;;;1.70;;
65358;SDS011;52491;45.900;6.346;2023-06-04T13:42:22;1.95;;;1.63;;
65358;SDS011;52491;45.900;6.346;2023-06-04T13:44:48;3.45;;;2.05;;
65358;SDS011;52491;45.900;6.346;2023-06-04T13:47:13;5.05;;;2.17;;
65358;SDS011;52491;45.900;6.346;2023-06-04T13:49:39;3.13;;;2.05;;
65358;SDS011;52491;45.900;6.346;2023-06-04T13:52:05;2.63;;;1.85;;
65358;SDS011;52491;45.900;6.346;2023-06-04T13:54:30;5.40;;;2.28;;
65358;SDS011;52491;45.900;6.346;2023-06-04T13:56:56;2.30;;;2.00;;
65358;SDS011;52491;45.900;6.346;2023-06-04T13:59:22;3.75;;;1.90;;
65358;SDS011;52491;45.900;6.346;2023-06-04T14:01:47;1.67;;;1.58;;
65358;SDS011;52491;45.900;6.346;2023-06-04T14:04:13;2.30;;;2.03;;
65358;SDS011;52491;45.900;6.346;2023-06-04T14:06:38;4.03;;;2.28;;
65358;SDS011;52491;45.900;6.346;2023-06-04T14:09:04;2.83;;;2.53;;
65358;SDS011;52491;45.900;6.346;2023-06-04T14:11:34;2.70;;;1.80;;
65358;SDS011;52491;45.900;6.346;2023-06-04T14:14:00;2.97;;;2.42;;
65358;SDS011;52491;45.900;6.346;2023-06-04T14:16:25;3.05;;;2.15;;
65358;SDS011;52491;45.900;6.346;2023-06-04T14:18:51;4.03;;;2.58;;
65358;SDS011;52491;45.900;6.346;2023-06-04T14:21:16;5.18;;;2.40;;
65358;SDS011;52491;45.900;6.346;2023-06-04T14:23:42;3.97;;;2.20;;
65358;SDS011;52491;45.900;6.346;2023-06-04T14:26:11;4.25;;;2.28;;
65358;SDS011;52491;45.900;6.346;2023-06-04T14:28:39;2.63;;;2.13;;
65358;SDS011;52491;45.900;6.346;2023-06-04T14:31:05;5.10;;;2.85;;
65358;SDS011;52491;45.900;6.346;2023-06-04T14:33:30;4.68;;;2.10;;
65358;SDS011;52491;45.900;6.346;2023-06-04T14:35:56;2.47;;;2.03;;
65358;SDS011;52491;45.900;6.346;2023-06-04T14:38:22;6.97;;;2.55;;
65358;SDS011;52491;45.900;6.346;2023-06-04T14:40:47;12.05;;;2.13;;
65358;SDS011;52491;45.900;6.346;2023-06-04T14:43:13;7.03;;;3.05;;
65358;SDS011;52491;45.900;6.346;2023-06-04T14:45:39;5.30;;;2.25;;
65358;SDS011;52491;45.900;6.346;2023-06-04T14:48:05;7.60;;;2.85;;
65358;SDS011;52491;45.900;6.346;2023-06-04T14:50:31;8.43;;;2.35;;
65358;SDS011;52491;45.900;6.346;2023-06-04T14:53:00;3.30;;;2.00;;
65358;SDS011;52491;45.900;6.346;2023-06-04T14:55:26;8.85;;;2.72;;
65358;SDS011;52491;45.900;6.346;2023-06-04T14:57:51;6.80;;;2.45;;
65358;SDS011;52491;45.900;6.346;2023-06-04T15:00:17;10.52;;;2.70;;
65358;SDS011;52491;45.900;6.346;2023-06-04T15:02:42;4.00;;;2.20;;
65358;SDS011;52491;45.900;6.346;2023-06-04T15:05:11;5.38;;;2.35;;